Time;durP1;ratioP1;P1;durP2;ratioP2;P2;SDS_P1;SDS_P2;PMS_P1;PMS_P2;Temp;Humidity;BMP_temperature;BMP_pressure;BME280_temperature;BME280_humidity;BME280_pressure;Samples;Min_cycle;Max_cycle;Signal;HPM_P1;HPM_P2
2023/09/14 00:01:22;;;;;;;;;18.00;17.00;;;;;22.36;100.00;101320.50;4857116;29;44807;-83
2023/09/14 00:03:47;;;;;;;;;20.33;20.33;;;;;22.46;100.00;101323.88;4856029;29;44966;-82
2023/09/14 00:06:13;;;;;;;;;21.00;19.67;;;;;22.48;99.17;101324.72;4873325;29;44780;-83
2023/09/14 00:08:38;;;;;;;;;16.33;16.33;;;;;22.45;99.50;101321.22;4872940;29;44827;-82
2023/09/14 00:11:05;;;;;;;;;17.00;17.00;;;;;22.58;99.36;101319.94;4872731;29;44759;-83
2023/09/14 00:13:31;;;;;;;;;22.33;19.67;;;;;22.45;99.36;101313.97;4872046;29;44981;-82
2023/09/14 00:15:56;;;;;;;;;19.00;17.67;;;;;22.42;99.11;101311.34;4872940;29;44823;-80
2023/09/14 00:18:22;;;;;;;;;17.67;16.33;;;;;22.43;99.44;101325.78;4873002;29;44901;-82
2023/09/14 00:20:52;;;;;;;;;19.33;17.00;;;;;22.38;100.00;101325.91;4849072;29;44866;-86
2023/09/14 00:23:17;;;;;;;;;16.67;15.00;;;;;22.27;100.00;101320.75;4835482;29;47061;-88
2023/09/14 00:25:43;;;;;;;;;21.00;19.33;;;;;22.29;100.00;101324.28;4852094;29;44866;-88
2023/09/14 00:28:09;;;;;;;;;17.00;17.00;;;;;22.15;100.00;101323.72;4852913;29;44786;-87
2023/09/14 00:30:34;;;;;;;;;18.00;18.00;;;;;22.11;100.00;101324.72;4852080;29;44839;-87
2023/09/14 00:33:00;;;;;;;;;19.33;19.33;;;;;22.08;100.00;101331.13;4836579;29;47587;-87
2023/09/14 00:35:26;;;;;;;;;17.00;17.00;;;;;22.26;100.00;101318.06;4853713;29;44749;-86
2023/09/14 00:37:52;;;;;;;;;16.33;16.00;;;;;22.25;100.00;101328.00;4836657;29;44867;-87
2023/09/14 00:40:17;;;;;;;;;18.00;16.00;;;;;22.01;100.00;101326.75;4834919;29;44842;-84
2023/09/14 00:42:44;;;;;;;;;21.33;20.00;;;;;21.95;100.00;101327.78;4852838;29;45211;-86
2023/09/14 00:45:12;;;;;;;;;19.00;18.00;;;;;21.96;100.00;101337.72;4837705;29;45306;-87
2023/09/14 00:47:41;;;;;;;;;21.67;20.33;;;;;21.92;100.00;101335.13;4851341;29;44825;-84
2023/09/14 00:50:10;;;;;;;;;21.67;20.33;;;;;21.91;100.00;101333.31;4834525;29;45525;-84
2023/09/14 00:52:37;;;;;;;;;20.00;18.33;;;;;21.97;100.00;101336.78;4833833;29;48102;-83
2023/09/14 00:55:07;;;;;;;;;17.00;17.00;;;;;21.91;100.00;101319.78;4849547;29;45467;-83
2023/09/14 00:57:33;;;;;;;;;23.33;22.00;;;;;21.84;100.00;101342.53;4831830;29;45463;-84
2023/09/14 00:59:59;;;;;;;;;22.33;21.33;;;;;21.86;100.00;101336.16;4847228;29;45387;-83
2023/09/14 01:02:25;;;;;;;;;20.33;19.33;;;;;21.78;100.00;101333.63;4852312;29;45396;-84
2023/09/14 01:04:51;;;;;;;;;23.00;22.00;;;;;21.75;100.00;101327.38;4851145;29;44962;-84
2023/09/14 01:07:17;;;;;;;;;23.67;22.67;;;;;21.71;100.00;101321.16;4834460;29;45417;-84
2023/09/14 01:09:45;;;;;;;;;23.00;21.00;;;;;21.77;100.00;101326.44;4850529;29;45589;-83
2023/09/14 01:12:10;;;;;;;;;22.67;21.00;;;;;21.70;100.00;101330.19;4844405;29;47340;-80
2023/09/14 01:14:51;;;;;;;;;22.00;20.00;;;;;21.81;100.00;101329.06;4871689;29;44759;-81
2023/09/14 01:17:31;;;;;;;;;23.00;22.33;;;;;21.76;100.00;101330.06;4871295;29;44779;-83
2023/09/14 01:20:16;;;;;;;;;24.67;23.00;;;;;21.81;100.00;101338.06;4871270;29;44844;-81
2023/09/14 01:22:50;;;;;;;;;24.00;19.33;;;;;21.80;100.00;101336.28;4870902;29;44988;-79
2023/09/14 01:25:52;;;;;;;;;18.00;18.00;;;;;21.80;100.00;101335.41;4853952;29;44964;-81
2023/09/14 01:28:18;;;;;;;;;23.33;20.33;;;;;21.67;100.00;101338.41;4780473;29;44795;-82
2023/09/14 01:30:44;;;;;;;;;27.67;25.67;;;;;21.63;100.00;101335.78;4780850;29;44784;-80
2023/09/14 01:33:17;;;;;;;;;21.67;21.00;;;;;21.71;100.00;101332.00;4795872;29;45509;-81
2023/09/14 01:36:13;;;;;;;;;15.67;15.00;;;;;21.76;100.00;101340.00;4779644;29;45231;-81
2023/09/14 01:38:44;;;;;;;;;21.00;21.00;;;;;21.60;100.00;101316.91;4780189;29;44833;-81
2023/09/14 01:41:10;;;;;;;;;22.00;22.00;;;;;21.66;100.00;101330.31;4779779;29;44944;-82
2023/09/14 01:43:41;;;;;;;;;24.00;21.00;;;;;21.72;100.00;101335.59;4779728;29;45077;-82
2023/09/14 01:46:07;;;;;;;;;21.00;21.00;;;;;21.68;100.00;101334.75;4795055;29;44809;-81
2023/09/14 01:48:33;;;;;;;;;21.00;20.00;;;;;21.69;100.00;101333.84;4794922;29;44930;-83
2023/09/14 01:51:46;;;;;;;;;24.00;21.67;;;;;21.93;100.00;101336.88;4775262;29;45339;-82
2023/09/14 01:54:18;;;;;;;;;26.00;24.33;;;;;21.89;100.00;101344.19;4761411;29;47086;-81
2023/09/14 01:56:45;;;;;;;;;24.33;22.67;;;;;21.79;100.00;101342.63;4778079;29;44771;-82
2023/09/14 01:59:11;;;;;;;;;24.33;23.67;;;;;21.78;100.00;101333.63;4747976;29;45300;-84
2023/09/14 02:01:39;;;;;;;;;23.00;23.00;;;;;21.69;100.00;101333.84;4764852;29;45841;-84
2023/09/14 02:04:08;;;;;;;;;24.00;24.00;;;;;21.76;100.00;101330.06;4812944;29;46874;-80
2023/09/14 02:06:34;;;;;;;;;26.00;24.33;;;;;21.66;100.00;101335.72;4871828;29;45326;-81
2023/09/14 02:09:05;;;;;;;;;24.00;23.00;;;;;21.73;100.00;101340.97;4854108;29;45386;-83
2023/09/14 02:11:30;;;;;;;;;21.67;21.00;;;;;21.61;100.00;101333.09;4837092;29;45453;-85
2023/09/14 02:13:55;;;;;;;;;18.67;18.00;;;;;21.58;100.00;101335.88;4835911;29;46981;-83
2023/09/14 02:16:21;;;;;;;;;18.00;18.00;;;;;21.52;100.00;101336.03;4851979;29;45431;-83
2023/09/14 02:18:46;;;;;;;;;20.67;20.67;;;;;21.49;100.00;101330.66;4836011;29;45401;-83
2023/09/14 02:21:12;;;;;;;;;16.33;16.33;;;;;21.46;100.00;101331.63;4854487;29;45308;-84
2023/09/14 02:23:38;;;;;;;;;21.00;17.33;;;;;21.38;100.00;101326.34;4836081;29;46734;-83
2023/09/14 02:26:03;;;;;;;;;18.33;18.33;;;;;21.34;100.00;101327.34;4852901;29;44723;-83
2023/09/14 02:31:50;;;;;;;;;21.33;20.33;;;;;21.21;100.00;101324.91;4851697;29;45423;-82
2023/09/14 02:34:16;;;;;;;;;17.33;15.33;;;;;21.17;100.00;101324.13;4834112;29;46950;-84
2023/09/14 02:36:41;;;;;;;;;22.33;20.33;;;;;21.14;100.00;101325.03;4849788;29;45332;-83
2023/09/14 02:39:07;;;;;;;;;14.67;14.67;;;;;21.08;100.00;101321.56;4849657;29;45400;-83
2023/09/14 02:41:32;;;;;;;;;21.00;19.00;;;;;21.05;100.00;101325.25;4850058;29;45357;-84
2023/09/14 02:43:58;;;;;;;;;20.67;20.67;;;;;20.99;100.00;101317.25;4833468;29;47184;-83
2023/09/14 02:46:23;;;;;;;;;15.33;14.67;;;;;20.98;100.00;101318.16;4834244;29;45478;-83
2023/09/14 02:48:49;;;;;;;;;19.67;18.00;;;;;20.88;100.00;101317.44;4834464;29;45451;-83
2023/09/14 02:51:14;;;;;;;;;16.33;15.67;;;;;20.81;100.00;101304.97;4835478;29;45486;-82
2023/09/14 02:53:41;;;;;;;;;18.67;18.67;;;;;20.87;100.00;101318.38;4819143;29;47113;-82
2023/09/14 02:56:09;;;;;;;;;21.33;20.00;;;;;20.82;100.00;101317.56;4836364;29;45015;-83
2023/09/14 02:58:35;;;;;;;;;23.67;21.67;;;;;20.76;100.00;101309.56;4835933;29;45461;-82
2023/09/14 03:01:08;;;;;;;;;20.33;20.33;;;;;20.83;100.00;101313.06;4835736;29;45385;-81
2023/09/14 03:03:36;;;;;;;;;18.00;18.00;;;;;20.73;100.00;101296.13;4832481;29;45405;-80
2023/09/14 03:06:04;;;;;;;;;20.00;20.00;;;;;20.68;100.00;101315.16;4832750;29;45365;-82
2023/09/14 03:08:30;;;;;;;;;23.00;19.00;;;;;20.69;100.00;101311.50;4849793;29;45548;-82
2023/09/14 03:10:56;;;;;;;;;21.33;19.33;;;;;20.68;100.00;101307.03;4834449;29;45552;-83
2023/09/14 03:13:22;;;;;;;;;19.00;19.00;;;;;20.70;100.00;101315.09;4833591;29;47823;-83
2023/09/14 03:16:00;;;;;;;;;19.00;18.33;;;;;20.77;100.00;101314.06;4818862;29;45427;-83
2023/09/14 03:18:26;;;;;;;;;20.67;19.33;;;;;20.65;100.00;101308.91;4834869;29;45155;-86
2023/09/14 03:20:56;;;;;;;;;16.00;16.00;;;;;20.71;100.00;101308.78;4838243;29;44815;-87
2023/09/14 03:23:24;;;;;;;;;20.33;19.00;;;;;20.70;100.00;101309.69;4854318;29;45504;-88
2023/09/14 03:25:50;;;;;;;;;18.33;18.33;;;;;20.58;100.00;101311.72;4838079;29;44968;-87
2023/09/14 03:28:17;;;;;;;;;18.00;15.33;;;;;20.70;100.00;101307.91;4855895;29;44829;-84
2023/09/14 03:30:43;;;;;;;;;18.00;17.33;;;;;20.63;100.00;101303.53;4852670;29;45694;-81
2023/09/14 03:33:14;;;;;;;;;18.67;18.67;;;;;20.58;100.00;101303.63;4851524;29;45519;-82
2023/09/14 03:35:43;;;;;;;;;21.67;20.33;;;;;20.62;100.00;101300.84;4850454;29;44827;-81
2023/09/14 03:38:11;;;;;;;;;20.33;18.67;;;;;20.65;100.00;101290.88;4869299;29;44743;-81
2023/09/14 03:40:37;;;;;;;;;20.67;19.00;;;;;20.54;100.00;101287.44;4850377;29;45229;-81
2023/09/14 03:43:02;;;;;;;;;19.33;17.00;;;;;20.50;100.00;101297.44;4834859;29;47313;-82
2023/09/14 03:45:27;;;;;;;;;22.00;20.67;;;;;20.48;100.00;101301.06;4833076;29;44944;-81
2023/09/14 03:47:55;;;;;;;;;15.00;15.00;;;;;20.42;100.00;101284.94;4851797;29;45387;-88
2023/09/14 03:50:20;;;;;;;;;22.00;19.00;;;;;20.44;100.00;101297.53;4854138;29;45332;-87
2023/09/14 03:52:46;;;;;;;;;20.33;19.33;;;;;20.46;100.00;101302.88;4855359;29;45587;-81
2023/09/14 03:55:14;;;;;;;;;18.33;18.33;;;;;20.41;100.00;101297.59;4852656;29;44804;-80
2023/09/14 03:57:46;;;;;;;;;22.00;19.33;;;;;20.40;100.00;101295.81;4851891;29;44775;-80
2023/09/14 04:00:14;;;;;;;;;19.00;19.00;;;;;20.41;100.00;101300.28;4869350;29;44788;-81
2023/09/14 04:02:39;;;;;;;;;20.00;20.00;;;;;20.39;100.00;101300.31;4852530;29;47027;-79
2023/09/14 04:05:15;;;;;;;;;20.00;18.00;;;;;20.46;100.00;101297.50;4869047;29;44713;-79
2023/09/14 04:07:44;;;;;;;;;21.33;19.00;;;;;20.39;100.00;101291.31;4868619;29;44839;-80
2023/09/14 04:10:12;;;;;;;;;20.00;20.00;;;;;20.36;100.00;101288.69;4869049;29;44840;-80
2023/09/14 04:12:44;;;;;;;;;22.00;21.67;;;;;20.28;100.00;101293.28;4841411;29;46309;-88
2023/09/14 04:15:10;;;;;;;;;21.00;19.00;;;;;20.25;100.00;101293.38;4852929;29;44724;-86
2023/09/14 04:17:36;;;;;;;;;18.00;15.67;;;;;20.22;100.00;101286.22;4853816;29;44858;-86
2023/09/14 04:20:20;;;;;;;;;21.00;21.00;;;;;20.26;100.00;101290.66;4835008;29;44895;-84
2023/09/14 04:22:47;;;;;;;;;23.00;23.00;;;;;20.18;100.00;101285.38;4850680;29;45548;-83
2023/09/14 04:25:13;;;;;;;;;18.00;18.00;;;;;20.23;100.00;101284.41;4834774;29;45458;-83
2023/09/14 04:27:38;;;;;;;;;20.33;18.67;;;;;20.23;100.00;101284.41;4834353;29;45391;-83
2023/09/14 04:30:46;;;;;;;;;19.00;18.67;;;;;20.43;100.00;101293.03;4832978;29;45401;-83
2023/09/14 04:33:13;;;;;;;;;21.33;19.00;;;;;20.25;100.00;101287.97;4834160;29;47904;-83
2023/09/14 04:35:40;;;;;;;;;19.67;19.00;;;;;20.16;100.00;101278.22;4850483;29;45343;-83
2023/09/14 04:38:07;;;;;;;;;18.33;17.00;;;;;20.30;100.00;101291.47;4833606;29;45774;-83
2023/09/14 04:40:47;;;;;;;;;19.67;19.67;;;;;20.30;100.00;101289.69;4848624;29;45433;-83
2023/09/14 04:43:14;;;;;;;;;24.33;23.33;;;;;20.22;100.00;101293.41;4848644;29;46645;-83
2023/09/14 04:45:39;;;;;;;;;19.00;19.00;;;;;20.10;100.00;101292.72;4831868;29;45440;-81
2023/09/14 04:48:06;;;;;;;;;20.33;20.33;;;;;20.14;100.00;101291.75;4831731;29;45513;-81
2023/09/14 04:50:34;;;;;;;;;20.33;19.67;;;;;20.08;100.00;101291.84;4835004;29;44690;-80
2023/09/14 04:52:59;;;;;;;;;22.33;21.67;;;;;20.01;100.00;101291.97;4850847;29;45867;-81
2023/09/14 04:55:25;;;;;;;;;20.00;19.67;;;;;20.06;100.00;101293.69;4834083;29;45868;-81
2023/09/14 04:57:51;;;;;;;;;20.33;20.33;;;;;20.00;100.00;101307.28;4833699;29;45395;-81
2023/09/14 05:00:16;;;;;;;;;21.00;19.33;;;;;20.03;100.00;101303.63;4851269;29;45474;-81
2023/09/14 05:02:42;;;;;;;;;20.67;19.67;;;;;19.97;100.00;101304.63;4849145;29;47005;-81
2023/09/14 05:05:08;;;;;;;;;19.67;19.67;;;;;20.04;100.00;101305.44;4849962;29;45446;-81
2023/09/14 05:07:39;;;;;;;;;16.33;16.33;;;;;20.06;100.00;101303.59;4833089;29;45428;-81
2023/09/14 05:10:07;;;;;;;;;24.33;22.33;;;;;20.01;100.00;101309.06;4849801;29;45434;-84
2023/09/14 05:12:33;;;;;;;;;22.67;21.00;;;;;19.99;100.00;101313.59;4849343;29;45006;-83
2023/09/14 05:14:58;;;;;;;;;18.33;18.33;;;;;19.96;100.00;101316.34;4832453;29;45515;-83
2023/09/14 05:17:25;;;;;;;;;22.00;21.67;;;;;20.02;100.00;101313.56;4852807;29;44771;-81
2023/09/14 05:19:50;;;;;;;;;22.33;21.00;;;;;19.92;100.00;101320.00;4854434;29;44922;-84
2023/09/14 05:22:15;;;;;;;;;21.33;17.00;;;;;19.97;100.00;101326.22;4869716;29;44897;-79
2023/09/14 05:24:44;;;;;;;;;21.67;19.67;;;;;20.06;100.00;101319.78;4870312;29;44758;-81
2023/09/14 05:27:13;;;;;;;;;19.00;18.33;;;;;19.96;100.00;101327.16;4873006;29;44765;-81
2023/09/14 05:29:38;;;;;;;;;19.67;19.00;;;;;19.93;100.00;101321.78;4853139;29;44811;-80
2023/09/14 05:32:07;;;;;;;;;22.00;20.67;;;;;19.94;100.00;101318.19;4837942;29;48498;-80
2023/09/14 05:34:34;;;;;;;;;21.00;19.33;;;;;20.02;100.00;101318.03;4856144;29;45062;-79
2023/09/14 05:37:00;;;;;;;;;18.67;18.33;;;;;19.92;100.00;101320.00;4838863;29;45444;-81
2023/09/14 05:39:25;;;;;;;;;18.67;18.67;;;;;19.90;100.00;101320.03;4838435;29;45346;-80
2023/09/14 05:41:54;;;;;;;;;19.00;17.33;;;;;20.02;100.00;101323.44;4822601;29;48036;-80
2023/09/14 05:44:19;;;;;;;;;23.33;22.00;;;;;19.87;100.00;101316.47;4856941;29;45406;-84
2023/09/14 05:46:45;;;;;;;;;22.00;19.67;;;;;19.88;100.00;101331.78;4838860;29;45411;-82
2023/09/14 05:49:10;;;;;;;;;21.00;19.00;;;;;19.91;100.00;101331.72;4838590;29;45394;-83
2023/09/14 05:51:35;;;;;;;;;21.00;19.33;;;;;19.93;100.00;101332.56;4838681;29;48166;-84
2023/09/14 05:54:01;;;;;;;;;22.00;19.33;;;;;20.01;100.00;101327.06;4836673;29;45651;-84
2023/09/14 05:56:26;;;;;;;;;22.00;20.00;;;;;20.03;100.00;101333.34;4853622;29;45434;-84
2023/09/14 05:58:52;;;;;;;;;22.00;21.67;;;;;20.05;100.00;101334.19;4835812;29;45424;-82
2023/09/14 06:01:17;;;;;;;;;18.33;17.33;;;;;20.04;100.00;101333.31;4806564;29;47085;-82
2023/09/14 06:03:43;;;;;;;;;19.00;19.00;;;;;20.10;100.00;101341.31;4838307;29;45517;-84
2023/09/14 06:06:10;;;;;;;;;19.00;17.67;;;;;20.26;100.00;101336.56;4838065;29;45434;-84
2023/09/14 06:08:35;;;;;;;;;22.00;21.33;;;;;20.21;100.00;101333.03;4854420;29;45778;-84
2023/09/14 06:11:01;;;;;;;;;22.33;22.33;;;;;20.37;100.00;101339.97;4855572;29;45894;-83
2023/09/14 06:13:26;;;;;;;;;21.00;20.67;;;;;20.48;100.00;101339.78;4854752;29;45495;-84
2023/09/14 06:15:52;;;;;;;;;18.67;18.33;;;;;20.61;100.00;101342.31;4837562;29;45377;-84
2023/09/14 06:18:20;;;;;;;;;17.33;16.33;;;;;20.80;100.00;101335.63;4854751;29;45468;-84
2023/09/14 06:20:46;;;;;;;;;22.00;19.33;;;;;20.82;100.00;101339.19;4837885;29;48036;-84
2023/09/14 06:23:11;;;;;;;;;17.33;16.67;;;;;20.89;100.00;101340.88;4822991;29;45371;-84
2023/09/14 06:25:37;;;;;;;;;22.67;20.67;;;;;20.95;100.00;101339.88;4836958;29;45357;-84
2023/09/14 06:28:05;;;;;;;;;21.67;20.67;;;;;21.09;100.00;101347.72;4853110;29;45348;-84
2023/09/14 06:30:32;;;;;;;;;23.33;20.67;;;;;21.10;100.00;101347.66;4837508;29;46794;-85
2023/09/14 06:32:58;;;;;;;;;20.00;20.00;;;;;21.25;100.00;101349.19;4853411;29;45613;-85
2023/09/14 06:35:24;;;;;;;;;22.33;21.33;;;;;21.27;100.00;101350.03;4834810;29;45379;-85
2023/09/14 06:37:51;;;;;;;;;21.00;20.67;;;;;21.35;100.00;101345.38;4856327;29;45410;-83
2023/09/14 06:40:16;;;;;;;;;21.00;19.33;;;;;21.43;100.00;101353.34;4822191;29;46355;-83
2023/09/14 06:42:42;;;;;;;;;22.00;21.00;;;;;21.62;100.00;101358.38;4838086;29;45334;-86
2023/09/14 06:45:10;;;;;;;;;21.00;21.00;;;;;21.74;100.00;101348.16;4856028;29;45411;-84
2023/09/14 06:47:37;;;;;;;;;21.67;21.67;;;;;21.77;100.00;101353.50;4825475;29;45420;-84
2023/09/14 06:50:04;;;;;;;;;23.00;22.33;;;;;21.75;100.00;101360.78;4856517;29;45391;-84
2023/09/14 06:52:34;;;;;;;;;22.67;22.00;;;;;21.70;100.00;101348.25;4857482;29;45337;-84
2023/09/14 06:55:00;;;;;;;;;21.67;18.67;;;;;21.60;100.00;101339.44;4855271;29;45466;-84
2023/09/14 06:57:26;;;;;;;;;21.33;19.67;;;;;21.62;100.00;101350.25;4837030;29;44891;-84
2023/09/14 06:59:51;;;;;;;;;20.67;20.67;;;;;21.65;100.00;101361.88;4854221;29;45770;-84
2023/09/14 07:02:17;;;;;;;;;21.67;20.33;;;;;21.71;100.00;101353.66;4836567;29;45333;-84
2023/09/14 07:04:42;;;;;;;;;27.00;21.67;;;;;21.75;100.00;101357.16;4822880;29;45379;-83
2023/09/14 07:07:11;;;;;;;;;19.33;19.33;;;;;21.86;100.00;101362.34;4855620;29;45462;-84
2023/09/14 07:09:37;;;;;;;;;26.67;26.00;;;;;21.97;99.35;101371.09;4839623;29;46738;-84
2023/09/14 07:12:02;;;;;;;;;24.00;23.00;;;;;21.90;98.67;101359.53;4853092;29;45275;-83
2023/09/14 07:14:28;;;;;;;;;22.00;21.67;;;;;21.83;98.93;101351.56;4843498;29;44736;-82
2023/09/14 07:16:54;;;;;;;;;23.00;21.67;;;;;21.90;99.32;101364.06;4842930;29;45364;-84
2023/09/14 07:19:26;;;;;;;;;20.33;19.67;;;;;22.03;98.90;101365.53;4856484;29;46645;-84
2023/09/14 07:21:58;;;;;;;;;26.33;24.00;;;;;22.12;98.86;101376.16;4856914;29;45467;-85
2023/09/14 07:24:27;;;;;;;;;22.33;19.67;;;;;22.23;98.34;101359.63;4827305;29;44807;-83
2023/09/14 07:26:53;;;;;;;;;25.33;24.67;;;;;22.22;98.02;101360.59;4853241;29;44942;-84
2023/09/14 07:29:19;;;;;;;;;23.67;22.00;;;;;22.32;97.48;101369.41;4825776;29;47159;-83
2023/09/14 07:31:45;;;;;;;;;24.67;24.67;;;;;22.36;96.55;101357.56;4824816;29;45431;-84
2023/09/14 07:34:11;;;;;;;;;25.67;23.33;;;;;22.40;96.93;101353.84;4839534;29;44887;-83
2023/09/14 07:36:36;;;;;;;;;23.00;23.00;;;;;22.45;95.62;101343.78;4837787;29;44836;-82
2023/09/14 07:39:02;;;;;;;;;26.67;25.33;;;;;22.49;95.88;101348.19;4856886;29;46699;-82
2023/09/14 07:41:29;;;;;;;;;24.00;22.67;;;;;22.57;95.21;101345.28;4840263;29;45420;-82
2023/09/14 07:43:57;;;;;;;;;29.00;26.67;;;;;22.55;95.21;101356.16;4856199;29;44945;-82
2023/09/14 07:46:22;;;;;;;;;32.00;28.00;;;;;22.60;95.52;101357.84;4852802;29;44928;-83
2023/09/14 07:48:48;;;;;;;;;26.00;24.33;;;;;22.63;94.91;101352.38;4851638;29;45503;-84
2023/09/14 07:51:13;;;;;;;;;29.00;26.67;;;;;22.59;94.49;101332.56;4845546;29;45255;-84
2023/09/14 07:53:47;;;;;;;;;27.67;27.67;;;;;22.84;94.42;101350.88;4838736;29;44744;-83
2023/09/14 07:56:22;;;;;;;;;26.00;25.00;;;;;22.95;94.27;101346.94;4846701;29;45451;-83
2023/09/14 07:58:47;;;;;;;;;25.67;25.67;;;;;22.82;93.05;101352.75;4831928;29;47348;-84
2023/09/14 08:01:16;;;;;;;;;30.00;28.33;;;;;22.94;92.34;101356.00;4855534;29;44957;-83
2023/09/14 08:03:44;;;;;;;;;27.33;27.00;;;;;22.80;93.72;101331.09;4851511;29;44821;-83
2023/09/14 08:06:10;;;;;;;;;28.00;28.00;;;;;22.85;93.03;101361.72;4835179;29;44979;-83
2023/09/14 08:08:35;;;;;;;;;28.00;25.00;;;;;23.00;92.98;101364.94;4836782;29;46882;-84
2023/09/14 08:11:07;;;;;;;;;24.00;24.00;;;;;22.85;93.11;101340.00;4852644;29;45336;-83
2023/09/14 08:13:33;;;;;;;;;27.00;25.67;;;;;23.04;92.23;101370.25;4849747;29;44974;-83
2023/09/14 08:16:04;;;;;;;;;28.67;28.67;;;;;23.17;92.02;101373.53;4850704;29;44913;-84
2023/09/14 08:18:38;;;;;;;;;29.67;28.33;;;;;23.07;91.54;101355.72;4841125;29;47334;-84
2023/09/14 08:21:08;;;;;;;;;30.33;29.67;;;;;23.03;91.89;101354.91;4835438;29;44891;-84
2023/09/14 08:23:36;;;;;;;;;31.67;28.67;;;;;23.20;92.41;101373.44;4826972;29;44917;-82
2023/09/14 08:26:06;;;;;;;;;33.33;30.00;;;;;23.21;91.75;101341.75;4853325;29;45453;-84
2023/09/14 08:28:34;;;;;;;;;34.33;30.00;;;;;23.35;92.18;101366.69;4849823;29;45435;-83
2023/09/14 08:31:16;;;;;;;;;36.33;31.00;;;;;23.63;91.43;101372.19;4837553;29;45101;-84
2023/09/14 08:33:48;;;;;;;;;32.33;30.67;;;;;23.49;90.91;101330.97;4834453;29;45119;-84
2023/09/14 08:36:16;;;;;;;;;31.00;30.33;;;;;23.48;90.83;101345.50;4831305;29;45533;-84
2023/09/14 08:38:51;;;;;;;;;29.33;29.00;;;;;23.67;89.93;101346.72;4841747;29;46749;-85
2023/09/14 08:41:36;;;;;;;;;30.67;29.67;;;;;23.71;89.85;101355.63;4843446;29;45189;-83
2023/09/14 08:44:36;;;;;;;;;;;;;;;;;;;;;
2023/09/14 08:47:02;;;;;;;;;32.33;31.00;;;;;23.71;89.27;101361.97;4856236;29;65022;-84
2023/09/14 08:49:42;;;;;;;;;34.33;30.00;;;;;24.03;88.11;101379.09;4840310;29;48511;-83
2023/09/14 08:52:15;;;;;;;;;32.33;29.67;;;;;24.01;88.34;101370.13;4847152;29;44964;-83
2023/09/14 08:54:42;;;;;;;;;30.00;29.00;;;;;23.86;87.20;101348.88;4850899;29;44928;-84
2023/09/14 08:57:24;;;;;;;;;26.33;24.67;;;;;23.76;87.70;101332.84;4818473;29;45511;-84
2023/09/14 09:00:15;;;;;;;;;28.33;27.67;;;;;24.00;87.53;101379.22;4838571;29;45481;-84
2023/09/14 09:02:46;;;;;;;;;33.00;30.67;;;;;23.94;88.09;101357.69;4841274;29;45070;-83
2023/09/14 09:05:12;;;;;;;;;33.33;31.33;;;;;24.16;87.49;101385.94;4836956;29;45469;-84
2023/09/14 09:07:50;;;;;;;;;28.33;27.00;;;;;24.08;86.30;101349.97;4847565;29;45697;-85
2023/09/14 09:10:53;;;;;;;;;31.00;26.00;;;;;24.28;85.82;101381.03;4863919;29;45800;-84
2023/09/14 09:13:21;;;;;;;;;33.00;30.00;;;;;24.17;87.22;101371.41;4844755;29;44814;-83
2023/09/14 09:16:00;;;;;;;;;27.00;25.00;;;;;24.42;84.80;101381.50;4847448;29;45687;-82
2023/09/14 09:18:26;;;;;;;;;33.00;28.00;;;;;24.25;85.97;101353.97;4848352;29;44959;-84
2023/09/14 09:21:05;;;;;;;;;34.33;30.67;;;;;24.49;84.85;101363.13;4846253;29;45327;-83
2023/09/14 09:23:37;;;;;;;;;32.67;30.33;;;;;24.12;83.85;101327.19;4845651;29;44910;-82
2023/09/14 09:26:06;;;;;;;;;29.33;28.00;;;;;24.42;85.60;101339.78;4848481;29;45286;-82
2023/09/14 09:28:32;;;;;;;;;34.67;32.33;;;;;24.46;84.92;101347.81;4837225;29;44863;-82
2023/09/14 09:31:00;;;;;;;;;32.33;30.00;;;;;24.77;81.84;101379.41;4845204;29;47038;-83
2023/09/14 09:33:43;;;;;;;;;32.00;31.00;;;;;25.00;83.25;101380.44;4832538;29;45487;-82
2023/09/14 09:36:19;;;;;;;;;33.00;31.67;;;;;24.94;81.72;101352.50;4845807;29;44904;-81
2023/09/14 09:39:00;;;;;;;;;39.00;33.67;;;;;24.92;83.29;101365.25;4839536;29;45507;-83
2023/09/14 09:41:26;;;;;;;;;37.00;34.00;;;;;24.86;83.68;101340.97;4854040;29;45379;-81
2023/09/14 09:44:05;;;;;;;;;34.00;32.00;;;;;25.21;83.24;101362.41;4854676;29;44776;-83
2023/09/14 09:46:42;;;;;;;;;36.67;33.33;;;;;25.23;82.78;101350.56;4859163;29;44967;-83
2023/09/14 09:49:33;;;;;;;;;32.67;30.67;;;;;25.45;80.10;101379.69;4843134;29;44849;-86
2023/09/14 09:52:09;;;;;;;;;34.33;30.33;;;;;25.18;78.97;101325.31;4849746;29;47339;-84
2023/09/14 09:54:36;;;;;;;;;33.00;30.00;;;;;25.22;79.52;101335.19;4846724;29;45167;-83
2023/09/14 10:03:25;;;;;;;;;30.33;30.00;;;;;25.76;76.83;101360.34;4845147;29;45534;-82
2023/09/14 10:06:41;;;;;;;;;31.00;28.67;;;;;25.75;73.50;101358.56;4823133;29;44859;-82
2023/09/14 10:09:15;;;;;;;;;31.33;28.00;;;;;25.61;71.17;101342.78;4785155;29;44840;-83
2023/09/14 10:11:46;;;;;;;;;28.67;27.33;;;;;25.30;71.19;101333.03;4775016;29;44923;-84
2023/09/14 10:14:28;;;;;;;;;23.33;22.67;;;;;25.40;72.87;101352.66;4789219;29;46310;-83
2023/09/14 10:16:59;;;;;;;;;18.33;18.33;;;;;25.09;71.09;101312.06;4786288;29;44918;-84
2023/09/14 10:19:28;;;;;;;;;25.67;23.33;;;;;25.30;72.32;101334.88;4778293;29;44964;-83
2023/09/14 10:22:46;;;;;;;;;23.33;22.33;;;;;25.44;72.70;101347.97;4767865;29;44974;-84
2023/09/14 10:25:12;;;;;;;;;31.00;30.33;;;;;25.31;72.24;101347.56;4784668;29;47100;-83
2023/09/14 10:27:42;;;;;;;;;30.00;28.33;;;;;25.21;73.75;101352.47;4772444;29;45090;-83
2023/09/14 10:30:20;;;;;;;;;31.67;28.33;;;;;25.27;74.17;101348.59;4776355;29;44932;-82
2023/09/14 10:35:22;;;;;;;;;26.33;26.00;;;;;25.28;70.26;101340.38;5570846;23;46975;-83
2023/09/14 10:37:50;;;;;;;;;22.33;21.67;;;;;25.30;68.21;101334.88;4857420;29;44906;-84
2023/09/14 10:40:17;;;;;;;;;18.33;17.67;;;;;25.21;70.77;101325.25;4856233;29;45016;-81
2023/09/14 10:42:47;;;;;;;;;22.00;21.33;;;;;25.44;68.52;101332.53;4841735;29;44940;-83
2023/09/14 10:45:16;;;;;;;;;30.33;29.67;;;;;25.35;70.62;101319.28;4850196;29;47303;-82
2023/09/14 10:47:58;;;;;;;;;28.67;28.67;;;;;25.32;70.67;101317.53;4867543;29;45084;-81
2023/09/14 10:50:38;;;;;;;;;28.33;25.67;;;;;25.28;69.13;101305.00;4861428;29;44908;-81
2023/09/14 10:53:11;;;;;;;;;27.67;23.00;;;;;25.53;65.38;101299.50;4847571;29;44928;-81
2023/09/14 10:55:38;;;;;;;;;22.00;21.33;;;;;25.56;67.82;101309.38;4865672;29;45475;-85
2023/09/14 11:06:02;;;;;;;;;34.33;29.33;;;;;25.63;68.25;101305.47;4947759;23;45990;-80
2023/09/14 11:14:20;;;;;;;;;;;;;;;;;;;;;
2023/09/14 11:24:41;;;;;;;;;37.67;32.67;;;;;26.08;70.65;101295.50;4662340;23;45324;-82
2023/09/14 11:29:50;;;;;;;;;29.00;27.67;;;;;26.24;68.61;101272.09;4968586;23;44848;-82
2023/09/14 11:32:22;;;;;;;;;22.67;21.67;;;;;26.33;67.57;101284.44;4839345;29;44885;-83
2023/09/14 11:40:01;;;;;;;;;23.33;21.33;;;;;26.12;65.60;101264.44;5491734;23;46459;-81
2023/09/14 11:45:08;;;;;;;;;21.00;20.33;;;;;26.57;60.08;101270.69;5210374;23;46313;-81
2023/09/14 11:47:35;;;;;;;;;14.67;14.67;;;;;26.53;65.19;101262.63;4832659;29;45446;-80
2023/09/14 11:50:05;;;;;;;;;15.00;12.67;;;;;26.78;63.86;101279.78;4820342;29;44938;-80
2023/09/14 11:52:32;;;;;;;;;13.25;13.25;;;;;27.05;60.29;101274.91;4812155;29;45138;-79
2023/09/14 11:55:00;;;;;;;;;16.00;15.33;;;;;27.03;60.21;101272.25;4802168;29;44986;-81
2023/09/14 11:57:28;;;;;;;;;7.00;7.00;;;;;27.07;58.01;101275.72;4827304;29;45384;-82
2023/09/14 12:00:13;;;;;;;;;;;;;;;;;;;;;
2023/09/14 12:02:44;;;;;;;;;9.67;8.33;;;;;26.77;57.79;101232.50;4835157;29;68042;-80
2023/09/14 12:05:10;;;;;;;;;6.25;6.25;;;;;27.07;59.03;101249.31;4832597;29;44791;-81